Redings Mill, Missouri
Current Conditions -  °F | °C
As of 3:53 AM on Sunday 25 Jan 2015 (Local Time) from KJLN Reporting Station
Broken Clouds Broken Clouds  
Wind Chill: 44°   Ceiling: 11000
Heat Index: 49°   Visibility: 10mi
Dew Point: 33°   Wind: 13mph
Humidity: 54%   Direction: 260°W
Pressure: 29.72"   Gusts: NA
Location:  37.1074°N, 94.5218°W
Report Text: KJLN 250953Z AUTO 26011KT 10SM SCT070 BKN110 09/01 A2972 RMK AO2 SLP061 T00940006
Loading
Personal Weather Stations






























Interactive Weather Map New forecast layout! Learn more

10-Day Weather Forecast

Advertisements
Track Severe Weather on mobile